createdAt,value
2023-04-26T04:01:58.653Z,2.30
2023-04-26T04:04:30.394Z,2.30
2023-04-26T04:07:02.105Z,2.30
2023-04-26T04:09:33.862Z,2.30
2023-04-26T04:12:05.768Z,2.30
2023-04-26T04:14:37.428Z,2.30
2023-04-26T04:17:10.569Z,2.30
2023-04-26T04:19:42.232Z,2.30
2023-04-26T04:22:13.926Z,2.30
2023-04-26T04:24:45.650Z,2.30
2023-04-26T04:27:17.396Z,2.40
2023-04-26T04:29:49.092Z,2.40
2023-04-26T04:32:22.332Z,2.50
2023-04-26T04:34:54.012Z,2.50
2023-04-26T04:37:25.759Z,2.70
2023-04-26T04:39:57.671Z,2.70
2023-04-26T04:42:29.439Z,2.80
2023-04-26T04:45:01.152Z,2.90
2023-04-26T04:47:34.330Z,3.30
2023-04-26T04:50:07.480Z,3.30
2023-04-26T04:52:39.157Z,3.60
2023-04-26T04:57:43.178Z,4.40
2023-04-26T05:00:16.279Z,4.90
2023-04-26T05:02:49.509Z,5.40
2023-04-26T05:05:21.265Z,5.90
2023-04-26T05:07:52.960Z,7.20
2023-04-26T05:10:24.635Z,7.40
2023-04-26T05:12:56.358Z,7.80
2023-04-26T05:15:28.020Z,8.80
2023-04-26T05:18:01.188Z,8.90
2023-04-26T05:20:33.080Z,8.70
2023-04-26T05:23:04.813Z,8.50
2023-04-26T05:25:37.478Z,8.70
2023-04-26T05:28:09.180Z,10.00
2023-04-26T05:30:40.864Z,10.20
2023-04-26T05:33:13.984Z,10.10
2023-04-26T05:35:45.684Z,9.60
2023-04-26T05:38:17.442Z,9.20
2023-04-26T05:40:49.123Z,9.40
2023-04-26T05:43:21.093Z,10.30
2023-04-26T05:45:52.936Z,11.10
2023-04-26T05:48:26.110Z,12.20
2023-04-26T05:50:57.774Z,13.50
2023-04-26T05:53:29.476Z,14.00
2023-04-26T05:56:01.146Z,14.60
2023-04-26T05:58:32.834Z,14.80
2023-04-26T06:01:04.554Z,15.10
2023-04-26T06:03:37.945Z,14.00
2023-04-26T06:06:09.746Z,15.70
2023-04-26T06:08:42.442Z,15.80
2023-04-26T06:11:14.150Z,16.20
2023-04-26T06:13:45.834Z,16.10
2023-04-26T06:16:17.599Z,16.20
2023-04-26T06:18:50.645Z,16.20
2023-04-26T06:21:22.321Z,16.20
2023-04-26T06:23:54.195Z,16.50
2023-04-26T06:26:26.145Z,16.50
2023-04-26T06:28:57.810Z,16.00
2023-04-26T06:31:29.518Z,16.20
2023-04-26T06:34:02.552Z,16.70
2023-04-26T06:36:34.254Z,16.80
2023-04-26T06:39:05.942Z,16.50
2023-04-26T06:41:37.638Z,15.80
2023-04-26T06:44:09.295Z,16.40
2023-04-26T06:46:41.066Z,15.50
2023-04-26T06:49:14.171Z,15.10
2023-04-26T06:51:45.873Z,14.50
2023-04-26T06:56:49.669Z,14.10
2023-04-26T06:59:21.385Z,14.50
2023-04-26T07:01:53.191Z,14.70
2023-04-26T07:04:26.425Z,16.00
2023-04-26T07:09:30.526Z,17.50
2023-04-26T07:12:02.223Z,16.10
2023-04-26T07:14:33.874Z,14.70
2023-04-26T07:17:05.529Z,14.30
2023-04-26T07:19:38.589Z,14.60
2023-04-26T07:22:10.276Z,14.60
2023-04-26T07:24:41.921Z,14.10
2023-04-26T07:27:13.657Z,14.00
2023-04-26T07:29:45.338Z,13.80
2023-04-26T07:32:17.198Z,13.80
2023-04-26T07:34:50.346Z,14.40
2023-04-26T07:37:22.050Z,15.20
2023-04-26T07:39:53.735Z,15.30
2023-04-26T07:42:25.477Z,14.80
2023-04-26T07:44:57.160Z,14.70
2023-04-26T07:47:28.856Z,14.60
2023-04-26T07:50:01.935Z,14.50
2023-04-26T07:52:34.188Z,14.00
2023-04-26T07:55:06.786Z,13.70
2023-04-26T07:57:38.472Z,13.30
2023-04-26T08:00:11.282Z,12.50
2023-04-26T08:02:45.371Z,12.40
2023-04-26T08:05:19.268Z,12.30
2023-04-26T08:07:51.109Z,12.70
2023-04-26T08:10:22.937Z,12.80
2023-04-26T08:12:54.705Z,12.70
2023-04-26T08:15:26.410Z,12.40
2023-04-26T08:17:58.149Z,12.30
2023-04-26T08:20:31.311Z,12.50
2023-04-26T08:23:02.981Z,12.70
2023-04-26T08:25:34.683Z,12.80
2023-04-26T08:28:06.366Z,12.80
2023-04-26T08:30:38.104Z,13.10
2023-04-26T08:33:09.979Z,13.10
2023-04-26T08:35:43.071Z,13.40
2023-04-26T08:38:14.766Z,13.70
2023-04-26T08:40:46.979Z,14.00
2023-04-26T08:43:18.667Z,13.90
2023-04-26T08:45:50.341Z,13.80
2023-04-26T08:48:22.036Z,13.80
2023-04-26T08:50:55.086Z,13.90
2023-04-26T08:53:26.783Z,13.90
2023-04-26T08:58:30.537Z,12.90
2023-04-26T09:01:02.205Z,12.70
2023-04-26T09:03:34.036Z,13.00
2023-04-26T09:06:07.887Z,13.50
2023-04-26T09:08:39.778Z,13.80
2023-04-26T09:11:11.449Z,13.90
2023-04-26T09:13:43.158Z,13.80
2023-04-26T09:16:14.902Z,13.50
2023-04-26T09:18:50.112Z,13.20
2023-04-26T09:21:23.153Z,13.00
2023-04-26T09:23:58.150Z,12.80
2023-04-26T09:26:29.826Z,12.60
2023-04-26T09:29:17.368Z,12.60
2023-04-26T09:31:50.158Z,12.40
2023-04-26T09:34:22.014Z,12.60
2023-04-26T09:36:55.640Z,12.90
2023-04-26T09:39:31.514Z,12.80
2023-04-26T09:42:03.669Z,12.80
2023-04-26T09:44:35.536Z,13.10
2023-04-26T09:47:08.293Z,13.20
2023-04-26T09:49:46.965Z,13.20
2023-04-26T09:52:19.991Z,13.30
2023-04-26T09:54:52.337Z,13.20
2023-04-26T09:57:24.051Z,13.10
2023-04-26T09:59:55.881Z,12.80
2023-04-26T10:02:27.880Z,12.50
2023-04-26T10:04:59.974Z,12.50
2023-04-26T10:07:33.253Z,12.60
2023-04-26T10:10:05.858Z,12.60
2023-04-26T10:12:37.556Z,12.60
2023-04-26T10:15:10.372Z,12.90
2023-04-26T10:17:42.082Z,13.20
2023-04-26T10:20:13.853Z,13.50
2023-04-26T10:22:50.936Z,13.80
2023-04-26T10:25:22.723Z,14.20
2023-04-26T10:27:54.414Z,14.60
2023-04-26T10:30:26.084Z,15.30
2023-04-26T10:33:12.716Z,16.20
2023-04-26T10:36:10.063Z,16.00
2023-04-26T10:39:04.774Z,14.90
2023-04-26T10:41:36.754Z,14.80
2023-04-26T10:44:42.657Z,14.50
2023-04-26T10:47:25.609Z,13.40
2023-04-26T10:50:05.797Z,12.60
2023-04-26T10:52:38.735Z,12.70
2023-04-26T10:55:11.748Z,12.90
2023-04-26T10:57:50.310Z,13.20
2023-04-26T11:00:32.031Z,13.60
2023-04-26T11:03:05.935Z,14.00
2023-04-26T11:05:53.283Z,14.20
2023-04-26T11:08:26.133Z,14.40
2023-04-26T11:11:05.335Z,14.20
2023-04-26T11:13:37.540Z,13.50
2023-04-26T11:16:09.864Z,13.10
2023-04-26T11:18:42.238Z,12.90
2023-04-26T11:21:13.947Z,12.80
2023-04-26T11:23:53.118Z,12.60
2023-04-26T11:26:32.392Z,12.50
2023-04-26T11:29:04.077Z,12.60
2023-04-26T11:31:35.804Z,12.70
2023-04-26T11:34:07.534Z,12.70
2023-04-26T11:36:39.243Z,12.70
2023-04-26T11:39:12.496Z,12.80
2023-04-26T11:41:46.796Z,12.80
2023-04-26T11:44:18.784Z,12.80
2023-04-26T11:46:50.530Z,12.70
2023-04-26T11:49:22.244Z,12.60
2023-04-26T11:51:53.940Z,12.60
2023-04-26T11:54:28.619Z,12.70
2023-04-26T11:57:01.646Z,12.90
2023-04-26T11:59:33.353Z,13.10
2023-04-26T12:02:06.025Z,13.10
2023-04-26T12:04:38.065Z,13.10
2023-04-26T12:07:09.928Z,12.60
2023-04-26T12:09:41.642Z,12.70
2023-04-26T12:12:14.702Z,13.00
2023-04-26T12:14:47.110Z,13.00
2023-04-26T12:17:18.892Z,13.30
2023-04-26T12:19:50.604Z,13.60
2023-04-26T12:22:22.279Z,14.00
2023-04-26T12:25:04.268Z,14.20
2023-04-26T12:27:37.344Z,14.60
2023-04-26T12:30:09.789Z,14.30
2023-04-26T12:32:41.554Z,14.10
2023-04-26T12:35:13.286Z,14.00
2023-04-26T12:37:44.989Z,13.60
2023-04-26T12:40:16.660Z,13.70
2023-04-26T12:42:49.918Z,13.90
2023-04-26T12:45:21.828Z,13.90
2023-04-26T12:47:53.538Z,14.20
2023-04-26T12:50:25.367Z,14.00
2023-04-26T12:52:57.084Z,13.40
2023-04-26T12:58:05.547Z,12.70
2023-04-26T13:00:37.233Z,12.60
2023-04-26T13:05:41.289Z,12.50
2023-04-26T13:08:13.194Z,12.70
2023-04-26T13:10:44.995Z,12.50
2023-04-26T13:13:19.152Z,12.40
2023-04-26T13:15:51.009Z,12.20
2023-04-26T13:18:22.725Z,12.30
2023-04-26T13:20:54.389Z,12.40
2023-04-26T13:23:26.104Z,12.50
2023-04-26T13:25:57.792Z,12.40
2023-04-26T13:28:30.830Z,12.30
2023-04-26T13:31:02.733Z,12.00
2023-04-26T13:33:34.500Z,12.00
2023-04-26T13:36:06.597Z,12.00
2023-04-26T13:38:38.280Z,12.10
2023-04-26T13:41:10.152Z,12.00
2023-04-26T13:43:43.176Z,12.10
2023-04-26T13:46:14.923Z,12.40
2023-04-26T13:48:46.614Z,12.50
2023-04-26T13:51:18.279Z,12.50
2023-04-26T13:53:51.004Z,12.60
2023-04-26T13:56:24.548Z,12.60
2023-04-26T13:58:59.255Z,12.50
2023-04-26T14:01:31.032Z,12.60
2023-04-26T14:04:03.503Z,12.60
2023-04-26T14:06:35.376Z,12.60
2023-04-26T14:09:07.062Z,12.70
2023-04-26T14:11:38.762Z,12.80
2023-04-26T14:14:11.802Z,13.00
2023-04-26T14:16:43.701Z,12.80
2023-04-26T14:19:16.390Z,12.80
2023-04-26T14:21:48.114Z,12.80
2023-04-26T14:24:19.844Z,12.40
2023-04-26T14:26:51.568Z,12.20
2023-04-26T14:29:24.592Z,12.20
2023-04-26T14:31:56.306Z,11.90
2023-04-26T14:34:27.968Z,12.00
2023-04-26T14:36:59.637Z,11.90
2023-04-26T14:39:31.314Z,11.90
2023-04-26T14:42:03.171Z,11.90
2023-04-26T14:44:36.194Z,11.90
2023-04-26T14:47:07.859Z,12.00
2023-04-26T14:49:39.515Z,12.00
2023-04-26T14:52:11.243Z,12.10
2023-04-26T14:54:42.951Z,12.20
2023-04-26T14:57:14.636Z,12.30
2023-04-26T14:59:47.682Z,12.20
2023-04-26T15:02:19.452Z,12.30
2023-04-26T15:04:51.265Z,10.20
2023-04-26T15:07:31.233Z,12.30
2023-04-26T15:10:04.766Z,12.30
2023-04-26T15:12:36.476Z,12.20
2023-04-26T15:15:10.387Z,12.20
2023-04-26T15:17:42.133Z,12.30
2023-04-26T15:20:14.036Z,12.30
2023-04-26T15:22:45.735Z,12.30
2023-04-26T15:25:17.549Z,12.40
2023-04-26T15:27:49.244Z,12.30
2023-04-26T15:30:22.496Z,11.80
2023-04-26T15:32:54.231Z,11.60
2023-04-26T15:35:26.069Z,11.60
2023-04-26T15:37:57.745Z,11.50
2023-04-26T15:40:29.398Z,11.60
2023-04-26T15:43:01.088Z,11.60
2023-04-26T15:45:34.724Z,11.40
2023-04-26T15:48:06.810Z,11.30
2023-04-26T15:50:38.567Z,11.20
2023-04-26T15:53:10.249Z,11.20
2023-04-26T15:55:41.906Z,11.30
2023-04-26T15:58:13.641Z,11.30
2023-04-26T16:00:46.763Z,11.30
2023-04-26T16:03:18.779Z,11.20
2023-04-26T16:05:50.807Z,11.30
2023-04-26T16:08:39.565Z,11.40
2023-04-26T16:11:11.942Z,11.40
2023-04-26T16:13:43.620Z,11.30
2023-04-26T16:16:18.779Z,11.30
2023-04-26T16:18:51.822Z,11.30
2023-04-26T16:21:23.491Z,11.20
2023-04-26T16:23:55.161Z,11.00
2023-04-26T16:26:26.864Z,11.00
2023-04-26T16:28:58.553Z,11.00
2023-04-26T16:31:30.357Z,11.10
2023-04-26T16:34:03.447Z,11.00
2023-04-26T16:36:35.133Z,11.00
2023-04-26T16:39:06.766Z,10.90
2023-04-26T16:41:38.434Z,10.80
2023-04-26T16:44:10.095Z,10.80
2023-04-26T16:46:41.820Z,10.80
2023-04-26T16:49:14.873Z,10.80
2023-04-26T16:51:46.623Z,10.80
2023-04-26T16:54:18.287Z,11.00
2023-04-26T16:56:49.959Z,11.00
2023-04-26T16:59:21.672Z,11.10
2023-04-26T17:01:53.408Z,11.10
2023-04-26T17:04:26.620Z,11.00
2023-04-26T17:06:58.392Z,11.00
2023-04-26T17:09:30.039Z,10.90
2023-04-26T17:12:01.765Z,10.80
2023-04-26T17:14:33.537Z,10.80
2023-04-26T17:17:05.229Z,10.70
2023-04-26T17:19:38.229Z,10.60
2023-04-26T17:22:09.911Z,10.60
2023-04-26T17:24:41.644Z,10.50
2023-04-26T17:27:13.319Z,10.50
2023-04-26T17:29:44.965Z,10.50
2023-04-26T17:32:16.639Z,10.50
2023-04-26T17:34:49.654Z,10.40
2023-04-26T17:37:21.524Z,10.50
2023-04-26T17:39:53.196Z,10.50
2023-04-26T17:42:24.960Z,10.50
2023-04-26T17:44:56.608Z,10.50
2023-04-26T17:47:28.334Z,10.50
2023-04-26T17:50:01.382Z,10.40
2023-04-26T17:52:33.141Z,10.40
2023-04-26T17:55:05.258Z,10.30
2023-04-26T17:57:36.945Z,10.30
2023-04-26T18:00:09.685Z,10.30
2023-04-26T18:02:41.458Z,10.20
2023-04-26T18:05:15.071Z,10.20
2023-04-26T18:07:46.768Z,10.20
2023-04-26T18:10:18.423Z,10.10
2023-04-26T18:12:50.126Z,10.00
2023-04-26T18:15:21.958Z,10.00
2023-04-26T18:17:53.699Z,9.90
2023-04-26T18:20:26.780Z,9.90
2023-04-26T18:22:58.475Z,9.80
2023-04-26T18:25:30.159Z,9.80
2023-04-26T18:28:01.802Z,9.70
2023-04-26T18:30:33.483Z,9.70
2023-04-26T18:33:05.266Z,9.60
2023-04-26T18:35:38.306Z,9.60
2023-04-26T18:38:10.005Z,9.60
2023-04-26T18:40:43.169Z,9.50
2023-04-26T18:43:14.879Z,9.50
2023-04-26T18:45:46.597Z,9.50
2023-04-26T18:48:18.261Z,9.50
2023-04-26T18:50:51.487Z,9.50
2023-04-26T18:53:23.160Z,9.50
2023-04-26T18:55:55.804Z,9.40
2023-04-26T18:58:27.460Z,9.40
2023-04-26T19:00:59.138Z,9.40
2023-04-26T19:03:30.916Z,9.40
2023-04-26T19:06:07.658Z,9.40
2023-04-26T19:08:39.314Z,9.30
2023-04-26T19:11:11.942Z,9.30
2023-04-26T19:13:43.599Z,9.30
2023-04-26T19:16:15.345Z,9.30
2023-04-26T19:18:47.065Z,9.30
2023-04-26T19:21:20.127Z,9.30
2023-04-26T19:23:51.820Z,9.20
2023-04-26T19:26:23.503Z,9.20
2023-04-26T19:28:55.150Z,9.20
2023-04-26T19:31:26.859Z,9.20
2023-04-26T19:33:58.555Z,9.20
2023-04-26T19:36:31.583Z,9.20
2023-04-26T19:39:03.261Z,9.10
2023-04-26T19:41:34.939Z,9.10
2023-04-26T19:44:06.585Z,9.10
2023-04-26T19:46:38.281Z,9.10
2023-04-26T19:49:09.964Z,9.10
2023-04-26T19:51:42.991Z,9.10
2023-04-26T19:54:14.669Z,9.10
2023-04-26T19:56:46.355Z,9.10
2023-04-26T19:59:18.229Z,9.10
2023-04-26T20:01:51.056Z,9.00
2023-04-26T20:04:24.967Z,9.00
2023-04-26T20:06:58.038Z,9.00
2023-04-26T20:09:29.701Z,9.00
2023-04-26T20:12:01.377Z,9.00
2023-04-26T20:14:33.079Z,9.00
2023-04-26T20:17:04.835Z,9.00
2023-04-26T20:19:36.588Z,9.00
2023-04-26T20:22:09.637Z,9.00
2023-04-26T20:24:41.303Z,8.90
2023-04-26T20:27:13.021Z,8.90
2023-04-26T20:29:46.534Z,8.90
2023-04-26T20:32:18.266Z,8.90
2023-04-26T20:34:49.958Z,8.90
2023-04-26T20:37:22.995Z,8.90
2023-04-26T20:39:54.678Z,8.90
2023-04-26T20:42:26.348Z,8.90
2023-04-26T20:44:59.829Z,8.90
2023-04-26T20:47:33.037Z,8.90
2023-04-26T20:50:05.346Z,8.80
2023-04-26T20:52:38.356Z,8.90
2023-04-26T20:55:10.244Z,8.80
2023-04-26T20:57:41.962Z,8.80
2023-04-26T21:00:14.163Z,8.80
2023-04-26T21:02:45.917Z,8.80
2023-04-26T21:05:17.705Z,8.80
2023-04-26T21:07:50.696Z,8.80
2023-04-26T21:10:22.480Z,8.80
2023-04-26T21:12:54.140Z,8.80
2023-04-26T21:15:26.176Z,8.80
2023-04-26T21:17:57.885Z,8.80
2023-04-26T21:20:29.578Z,8.80
2023-04-26T21:23:02.587Z,8.80
2023-04-26T21:25:34.283Z,8.80
2023-04-26T21:28:05.950Z,8.80
2023-04-26T21:30:37.632Z,8.70
2023-04-26T21:33:09.342Z,8.70
2023-04-26T21:35:41.094Z,8.70
2023-04-26T21:38:14.124Z,8.70
2023-04-26T21:40:45.786Z,8.70
2023-04-26T21:43:17.579Z,8.70
2023-04-26T21:45:49.259Z,8.70
2023-04-26T21:48:20.905Z,8.70
2023-04-26T21:50:52.566Z,8.70
2023-04-26T21:53:25.655Z,8.70
2023-04-26T21:55:57.442Z,8.70
2023-04-26T21:58:29.089Z,8.70
